Pedden Acres, Vermont
Current Conditions -  °F | °C
As of 8:54 AM on Tuesday 27 Jan 2015 (Local Time) from KVSF Reporting Station
Light Snow Light Snow  
Wind Chill:   Ceiling: 2300
Heat Index: 12°   Visibility: 0.75mi
Dew Point:   Wind: 9mph
Humidity: 73%   Direction: 20°NNE
Pressure: 29.76"   Gusts: NA
Location:  43.3096°N, 72.4675°W
Report Text: KVSF 271354Z AUTO 02008KT 280V050 3/4SM -SN OVC023 M11/M15 A2976 RMK AO2 SLP090 P0000 T11111150 TSNO
Loading
Personal Weather Stations






























Interactive Weather Map New forecast layout! Learn more

10-Day Weather Forecast

Advertisements
Track Severe Weather on mobile